sensor_id;sensor_type;location;lat;lon;timestamp;pressure;altitude;pressure_sealevel;temperature;humidity
23339;BME280;11841;49.368;20.962;2023-05-23T00:00:02;95610.53;;;9.71;83.22
23339;BME280;11841;49.368;20.962;2023-05-23T00:02:48;95609.38;;;9.67;83.22
23339;BME280;11841;49.368;20.962;2023-05-23T00:05:33;95601.03;;;9.63;83.03
23339;BME280;11841;49.368;20.962;2023-05-23T00:08:19;95598.78;;;9.60;83.08
23339;BME280;11841;49.368;20.962;2023-05-23T00:11:04;95602.91;;;9.56;83.39
23339;BME280;11841;49.368;20.962;2023-05-23T00:13:49;95604.94;;;9.54;83.62
23339;BME280;11841;49.368;20.962;2023-05-23T00:16:35;95595.22;;;9.48;83.82
23339;BME280;11841;49.368;20.962;2023-05-23T00:19:25;95594.84;;;9.45;83.58
23339;BME280;11841;49.368;20.962;2023-05-23T00:22:11;95591.59;;;9.43;83.89
23339;BME280;11841;49.368;20.962;2023-05-23T00:24:56;95594.66;;;9.40;83.86
23339;BME280;11841;49.368;20.962;2023-05-23T00:27:41;95600.56;;;9.35;83.69
23339;BME280;11841;49.368;20.962;2023-05-23T00:30:31;95599.41;;;9.31;84.19
23339;BME280;11841;49.368;20.962;2023-05-23T00:33:17;95594.50;;;9.28;84.27
23339;BME280;11841;49.368;20.962;2023-05-23T00:36:06;95592.88;;;9.27;84.27
23339;BME280;11841;49.368;20.962;2023-05-23T00:38:51;95587.81;;;9.26;84.24
23339;BME280;11841;49.368;20.962;2023-05-23T00:41:37;95593.31;;;9.24;84.31
23339;BME280;11841;49.368;20.962;2023-05-23T00:44:22;95595.78;;;9.19;84.07
23339;BME280;11841;49.368;20.962;2023-05-23T00:47:07;95590.91;;;9.16;84.20
23339;BME280;11841;49.368;20.962;2023-05-23T00:49:53;95595.00;;;9.12;84.42
23339;BME280;11841;49.368;20.962;2023-05-23T00:52:39;95599.06;;;9.08;84.33
23339;BME280;11841;49.368;20.962;2023-05-23T00:55:24;95585.47;;;9.05;84.28
23339;BME280;11841;49.368;20.962;2023-05-23T00:58:10;95585.66;;;9.03;84.56
23339;BME280;11841;49.368;20.962;2023-05-23T01:00:57;95586.09;;;9.00;84.27
23339;BME280;11841;49.368;20.962;2023-05-23T01:03:43;95583.06;;;8.97;84.59
23339;BME280;11841;49.368;20.962;2023-05-23T01:06:30;95580.84;;;8.94;84.76
23339;BME280;11841;49.368;20.962;2023-05-23T01:09:17;95585.53;;;8.92;84.65
23339;BME280;11841;49.368;20.962;2023-05-23T01:22:02;95578.22;;;8.81;84.50
23339;BME280;11841;49.368;20.962;2023-05-23T01:24:54;95581.50;;;8.76;84.68
23339;BME280;11841;49.368;20.962;2023-05-23T01:27:46;95573.19;;;8.73;84.65
23339;BME280;11841;49.368;20.962;2023-05-23T01:30:36;95578.66;;;8.71;84.52
23339;BME280;11841;49.368;20.962;2023-05-23T01:33:24;95583.34;;;8.69;84.63
23339;BME280;11841;49.368;20.962;2023-05-23T01:36:12;95585.38;;;8.67;84.92
23339;BME280;11841;49.368;20.962;2023-05-23T01:38:57;95578.91;;;8.63;84.88
23339;BME280;11841;49.368;20.962;2023-05-23T01:41:43;95582.97;;;8.59;84.91
23339;BME280;11841;49.368;20.962;2023-05-23T01:44:28;95563.69;;;8.59;84.93
23339;BME280;11841;49.368;20.962;2023-05-23T01:47:15;95569.16;;;8.57;85.23
23339;BME280;11841;49.368;20.962;2023-05-23T01:50:01;95567.53;;;8.56;85.08
23339;BME280;11841;49.368;20.962;2023-05-23T01:52:47;95566.94;;;8.54;85.67
23339;BME280;11841;49.368;20.962;2023-05-23T01:55:33;95558.38;;;8.52;85.10
23339;BME280;11841;49.368;20.962;2023-05-23T01:58:19;95562.28;;;8.49;85.12
23339;BME280;11841;49.368;20.962;2023-05-23T02:01:04;95560.25;;;8.45;85.00
23339;BME280;11841;49.368;20.962;2023-05-23T02:03:50;95560.66;;;8.42;85.58
23339;BME280;11841;49.368;20.962;2023-05-23T02:06:35;95559.47;;;8.38;85.32
23339;BME280;11841;49.368;20.962;2023-05-23T02:09:21;95555.59;;;8.34;85.24
23339;BME280;11841;49.368;20.962;2023-05-23T02:12:06;95553.16;;;8.32;85.43
23339;BME280;11841;49.368;20.962;2023-05-23T02:14:53;95556.22;;;8.29;85.61
23339;BME280;11841;49.368;20.962;2023-05-23T02:17:39;95550.53;;;8.26;85.64
23339;BME280;11841;49.368;20.962;2023-05-23T02:20:25;95553.56;;;8.23;85.69
23339;BME280;11841;49.368;20.962;2023-05-23T02:23:11;95555.38;;;8.22;85.89
23339;BME280;11841;49.368;20.962;2023-05-23T02:25:56;95555.59;;;8.21;85.74
23339;BME280;11841;49.368;20.962;2023-05-23T02:28:41;95553.97;;;8.20;85.70
23339;BME280;11841;49.368;20.962;2023-05-23T02:31:27;95546.25;;;8.18;85.83
23339;BME280;11841;49.368;20.962;2023-05-23T02:34:13;95542.19;;;8.16;85.61
23339;BME280;11841;49.368;20.962;2023-05-23T02:36:58;95542.59;;;8.13;85.76
23339;BME280;11841;49.368;20.962;2023-05-23T02:39:43;95547.28;;;8.11;85.76
23339;BME280;11841;49.368;20.962;2023-05-23T02:42:28;95548.28;;;8.10;86.37
23339;BME280;11841;49.368;20.962;2023-05-23T02:45:14;95544.03;;;8.09;85.94
23339;BME280;11841;49.368;20.962;2023-05-23T02:47:59;95541.19;;;8.10;86.27
23339;BME280;11841;49.368;20.962;2023-05-23T02:50:44;95539.56;;;8.09;85.79
23339;BME280;11841;49.368;20.962;2023-05-23T02:53:30;95540.38;;;8.10;85.93
23339;BME280;11841;49.368;20.962;2023-05-23T02:56:15;95543.44;;;8.07;85.87
23339;BME280;11841;49.368;20.962;2023-05-23T02:59:01;95538.34;;;8.05;86.31
23339;BME280;11841;49.368;20.962;2023-05-23T03:01:46;95538.56;;;8.04;86.21
23339;BME280;11841;49.368;20.962;2023-05-23T03:04:31;95539.56;;;8.03;86.35
23339;BME280;11841;49.368;20.962;2023-05-23T03:07:17;95545.88;;;8.02;86.63
23339;BME280;11841;49.368;20.962;2023-05-23T03:10:12;95546.91;;;8.01;86.56
23339;BME280;11841;49.368;20.962;2023-05-23T03:12:57;95542.63;;;8.00;86.50
23339;BME280;11841;49.368;20.962;2023-05-23T03:15:42;95541.63;;;8.01;86.38
23339;BME280;11841;49.368;20.962;2023-05-23T03:18:27;95536.72;;;8.04;86.38
23339;BME280;11841;49.368;20.962;2023-05-23T03:21:13;95540.16;;;8.05;86.71
23339;BME280;11841;49.368;20.962;2023-05-23T03:23:58;95538.16;;;8.07;87.18
23339;BME280;11841;49.368;20.962;2023-05-23T03:26:43;95545.66;;;8.10;86.89
23339;BME280;11841;49.368;20.962;2023-05-23T03:29:29;95538.34;;;8.12;86.94
23339;BME280;11841;49.368;20.962;2023-05-23T03:32:14;95537.13;;;8.14;87.20
23339;BME280;11841;49.368;20.962;2023-05-23T03:35:00;95534.06;;;8.17;87.51
23339;BME280;11841;49.368;20.962;2023-05-23T03:37:46;95531.84;;;8.21;87.41
23339;BME280;11841;49.368;20.962;2023-05-23T03:40:31;95535.09;;;8.23;88.04
23339;BME280;11841;49.368;20.962;2023-05-23T03:43:16;95532.06;;;8.26;88.13
23339;BME280;11841;49.368;20.962;2023-05-23T03:46:01;95532.03;;;8.32;88.36
23339;BME280;11841;49.368;20.962;2023-05-23T03:48:47;95535.28;;;8.34;88.25
23339;BME280;11841;49.368;20.962;2023-05-23T03:51:33;95527.56;;;8.39;88.60
23339;BME280;11841;49.368;20.962;2023-05-23T03:54:18;95530.59;;;8.43;89.41
23339;BME280;11841;49.368;20.962;2023-05-23T03:57:04;95523.28;;;8.45;89.82
23339;BME280;11841;49.368;20.962;2023-05-23T03:59:49;95527.72;;;8.51;89.23
23339;BME280;11841;49.368;20.962;2023-05-23T04:02:35;95525.25;;;8.56;90.09
23339;BME280;11841;49.368;20.962;2023-05-23T04:05:20;95517.31;;;8.63;90.02
23339;BME280;11841;49.368;20.962;2023-05-23T04:08:05;95522.56;;;8.69;90.16
23339;BME280;11841;49.368;20.962;2023-05-23T04:10:52;95524.81;;;8.72;90.57
23339;BME280;11841;49.368;20.962;2023-05-23T04:13:37;95525.78;;;8.78;91.62
23339;BME280;11841;49.368;20.962;2023-05-23T04:16:23;95516.59;;;8.87;91.14
23339;BME280;11841;49.368;20.962;2023-05-23T04:19:08;95517.81;;;8.91;91.67
23339;BME280;11841;49.368;20.962;2023-05-23T04:21:53;95515.75;;;8.99;91.84
23339;BME280;11841;49.368;20.962;2023-05-23T04:24:39;95515.69;;;9.06;91.37
23339;BME280;11841;49.368;20.962;2023-05-23T04:27:24;95514.84;;;9.12;91.26
23339;BME280;11841;49.368;20.962;2023-05-23T04:30:10;95507.91;;;9.17;91.57
23339;BME280;11841;49.368;20.962;2023-05-23T04:32:55;95515.78;;;9.24;91.31
23339;BME280;11841;49.368;20.962;2023-05-23T04:35:42;95509.84;;;9.28;90.86
23339;BME280;11841;49.368;20.962;2023-05-23T04:38:28;95500.03;;;9.35;91.08
23339;BME280;11841;49.368;20.962;2023-05-23T04:41:13;95495.94;;;9.39;91.33
23339;BME280;11841;49.368;20.962;2023-05-23T04:44:00;95510.97;;;9.45;91.15
23339;BME280;11841;49.368;20.962;2023-05-23T04:46:46;95494.22;;;9.51;91.18
23339;BME280;11841;49.368;20.962;2023-05-23T04:49:31;95500.28;;;9.58;91.62
23339;BME280;11841;49.368;20.962;2023-05-23T04:52:18;95496.78;;;9.64;91.42
23339;BME280;11841;49.368;20.962;2023-05-23T04:55:04;95501.84;;;9.66;92.94
23339;BME280;11841;49.368;20.962;2023-05-23T04:57:50;95488.41;;;9.67;93.36
23339;BME280;11841;49.368;20.962;2023-05-23T05:00:35;95488.16;;;9.75;93.47
23339;BME280;11841;49.368;20.962;2023-05-23T05:03:21;95486.59;;;9.86;92.67
23339;BME280;11841;49.368;20.962;2023-05-23T05:06:09;95489.38;;;9.98;92.28
23339;BME280;11841;49.368;20.962;2023-05-23T05:08:54;95484.22;;;10.03;92.90
23339;BME280;11841;49.368;20.962;2023-05-23T05:11:39;95482.34;;;10.10;93.00
23339;BME280;11841;49.368;20.962;2023-05-23T05:14:25;95478.97;;;10.21;92.71
23339;BME280;11841;49.368;20.962;2023-05-23T05:17:11;95479.28;;;10.31;93.35
23339;BME280;11841;49.368;20.962;2023-05-23T05:19:57;95481.22;;;10.42;93.55
23339;BME280;11841;49.368;20.962;2023-05-23T05:22:42;95482.28;;;10.52;92.68
23339;BME280;11841;49.368;20.962;2023-05-23T05:25:27;95482.19;;;10.59;92.83
23339;BME280;11841;49.368;20.962;2023-05-23T05:28:16;95471.53;;;10.65;92.51
23339;BME280;11841;49.368;20.962;2023-05-23T05:31:01;95479.19;;;10.73;92.68
23339;BME280;11841;49.368;20.962;2023-05-23T05:33:49;95478.88;;;10.81;93.34
23339;BME280;11841;49.368;20.962;2023-05-23T05:36:34;95481.81;;;10.91;92.47
23339;BME280;11841;49.368;20.962;2023-05-23T05:39:19;95476.41;;;10.98;92.57
23339;BME280;11841;49.368;20.962;2023-05-23T05:42:05;95468.94;;;11.07;92.27
23339;BME280;11841;49.368;20.962;2023-05-23T05:44:50;95473.13;;;11.14;92.12
23339;BME280;11841;49.368;20.962;2023-05-23T05:47:36;95482.97;;;11.25;92.40
23339;BME280;11841;49.368;20.962;2023-05-23T05:50:23;95471.81;;;11.35;92.09
23339;BME280;11841;49.368;20.962;2023-05-23T05:53:08;95468.25;;;11.41;92.01
23339;BME280;11841;49.368;20.962;2023-05-23T05:55:53;95472.44;;;11.48;91.83
23339;BME280;11841;49.368;20.962;2023-05-23T05:58:39;95465.19;;;11.55;92.13
23339;BME280;11841;49.368;20.962;2023-05-23T06:01:24;95454.59;;;11.67;91.87
23339;BME280;11841;49.368;20.962;2023-05-23T06:04:11;95457.72;;;11.75;91.41
23339;BME280;11841;49.368;20.962;2023-05-23T06:06:56;95461.78;;;11.89;91.98
23339;BME280;11841;49.368;20.962;2023-05-23T06:09:41;95464.66;;;11.99;91.14
23339;BME280;11841;49.368;20.962;2023-05-23T06:12:27;95460.72;;;12.13;91.64
23339;BME280;11841;49.368;20.962;2023-05-23T06:15:12;95451.81;;;12.31;91.19
23339;BME280;11841;49.368;20.962;2023-05-23T06:17:58;95451.22;;;12.41;90.29
23339;BME280;11841;49.368;20.962;2023-05-23T06:20:43;95453.53;;;12.49;90.30
23339;BME280;11841;49.368;20.962;2023-05-23T06:23:29;95455.34;;;12.60;89.14
23339;BME280;11841;49.368;20.962;2023-05-23T06:26:14;95452.41;;;12.73;88.56
23339;BME280;11841;49.368;20.962;2023-05-23T06:28:59;95454.00;;;12.85;88.69
23339;BME280;11841;49.368;20.962;2023-05-23T06:31:45;95450.72;;;12.95;88.74
23339;BME280;11841;49.368;20.962;2023-05-23T06:34:30;95451.25;;;13.20;87.52
23339;BME280;11841;49.368;20.962;2023-05-23T06:37:15;95440.28;;;13.33;86.35
23339;BME280;11841;49.368;20.962;2023-05-23T06:40:01;95436.72;;;13.44;86.40
23339;BME280;11841;49.368;20.962;2023-05-23T06:42:47;95434.63;;;13.46;86.40
23339;BME280;11841;49.368;20.962;2023-05-23T06:45:32;95430.78;;;13.54;86.35
23339;BME280;11841;49.368;20.962;2023-05-23T06:48:19;95435.53;;;13.68;86.17
23339;BME280;11841;49.368;20.962;2023-05-23T06:51:05;95431.00;;;13.85;86.30
23339;BME280;11841;49.368;20.962;2023-05-23T06:53:50;95422.34;;;14.11;84.38
23339;BME280;11841;49.368;20.962;2023-05-23T06:56:35;95423.63;;;14.25;83.85
23339;BME280;11841;49.368;20.962;2023-05-23T06:59:21;95415.28;;;14.38;83.05
23339;BME280;11841;49.368;20.962;2023-05-23T07:02:06;95426.97;;;14.54;83.60
23339;BME280;11841;49.368;20.962;2023-05-23T07:04:51;95418.41;;;14.74;82.99
23339;BME280;11841;49.368;20.962;2023-05-23T07:07:36;95411.00;;;14.81;82.90
23339;BME280;11841;49.368;20.962;2023-05-23T07:10:22;95412.72;;;14.92;83.14
23339;BME280;11841;49.368;20.962;2023-05-23T07:13:07;95408.72;;;15.16;82.07
23339;BME280;11841;49.368;20.962;2023-05-23T07:15:54;95409.41;;;15.33;81.42
23339;BME280;11841;49.368;20.962;2023-05-23T07:18:39;95406.38;;;15.51;81.49
23339;BME280;11841;49.368;20.962;2023-05-23T07:21:25;95403.31;;;15.64;79.72
23339;BME280;11841;49.368;20.962;2023-05-23T07:24:10;95403.34;;;15.69;80.52
23339;BME280;11841;49.368;20.962;2023-05-23T07:26:56;95398.59;;;15.76;81.38
23339;BME280;11841;49.368;20.962;2023-05-23T07:29:41;95404.13;;;16.01;80.12
23339;BME280;11841;49.368;20.962;2023-05-23T07:32:26;95401.81;;;16.15;80.23
23339;BME280;11841;49.368;20.962;2023-05-23T07:35:12;95407.53;;;16.38;79.69
23339;BME280;11841;49.368;20.962;2023-05-23T07:37:58;95402.84;;;16.55;77.93
23339;BME280;11841;49.368;20.962;2023-05-23T07:40:43;95401.09;;;16.81;78.07
23339;BME280;11841;49.368;20.962;2023-05-23T07:43:40;95404.38;;;17.13;75.35
23339;BME280;11841;49.368;20.962;2023-05-23T07:46:26;95397.75;;;17.36;74.32
23339;BME280;11841;49.368;20.962;2023-05-23T07:49:11;95401.78;;;17.58;71.46
23339;BME280;11841;49.368;20.962;2023-05-23T07:51:57;95407.44;;;17.72;71.17
23339;BME280;11841;49.368;20.962;2023-05-23T07:54:42;95398.31;;;17.78;70.97
23339;BME280;11841;49.368;20.962;2023-05-23T07:57:27;95393.50;;;17.85;70.57
23339;BME280;11841;49.368;20.962;2023-05-23T08:00:13;95403.13;;;18.06;69.79
23339;BME280;11841;49.368;20.962;2023-05-23T08:02:58;95395.06;;;18.16;68.59
23339;BME280;11841;49.368;20.962;2023-05-23T08:05:43;95390.22;;;18.18;69.37
23339;BME280;11841;49.368;20.962;2023-05-23T08:08:29;95378.16;;;18.21;69.11
23339;BME280;11841;49.368;20.962;2023-05-23T08:11:15;95380.53;;;18.32;68.24
23339;BME280;11841;49.368;20.962;2023-05-23T08:14:00;95383.19;;;18.57;68.42
23339;BME280;11841;49.368;20.962;2023-05-23T08:16:46;95373.34;;;18.96;66.70
23339;BME280;11841;49.368;20.962;2023-05-23T08:19:31;95373.78;;;19.13;64.82
23339;BME280;11841;49.368;20.962;2023-05-23T08:22:16;95369.94;;;19.30;65.63
23339;BME280;11841;49.368;20.962;2023-05-23T08:25:01;95376.75;;;19.56;64.20
23339;BME280;11841;49.368;20.962;2023-05-23T08:27:47;95369.69;;;19.65;64.97
23339;BME280;11841;49.368;20.962;2023-05-23T08:30:32;95364.81;;;19.72;64.24
23339;BME280;11841;49.368;20.962;2023-05-23T08:33:17;95370.13;;;19.77;63.85
23339;BME280;11841;49.368;20.962;2023-05-23T08:36:03;95368.31;;;19.67;65.31
23339;BME280;11841;49.368;20.962;2023-05-23T08:38:49;95370.44;;;19.70;64.06
23339;BME280;11841;49.368;20.962;2023-05-23T08:41:35;95368.00;;;19.74;64.09
23339;BME280;11841;49.368;20.962;2023-05-23T08:44:20;95364.75;;;19.77;63.53
23339;BME280;11841;49.368;20.962;2023-05-23T08:47:07;95362.47;;;19.89;63.28
23339;BME280;11841;49.368;20.962;2023-05-23T08:49:54;95368.72;;;20.13;62.07
23339;BME280;11841;49.368;20.962;2023-05-23T08:52:57;95362.25;;;20.19;62.99
23339;BME280;11841;49.368;20.962;2023-05-23T08:55:42;95365.34;;;20.31;60.42
23339;BME280;11841;49.368;20.962;2023-05-23T08:58:31;95363.25;;;20.47;60.16
23339;BME280;11841;49.368;20.962;2023-05-23T09:01:19;95362.19;;;20.48;61.35
23339;BME280;11841;49.368;20.962;2023-05-23T09:04:05;95358.13;;;20.50;61.22
23339;BME280;11841;49.368;20.962;2023-05-23T09:06:51;95355.13;;;20.52;58.94
23339;BME280;11841;49.368;20.962;2023-05-23T09:09:38;95352.59;;;20.60;59.10
23339;BME280;11841;49.368;20.962;2023-05-23T09:12:23;95350.88;;;20.69;60.56
23339;BME280;11841;49.368;20.962;2023-05-23T09:15:09;95348.72;;;20.71;60.54
23339;BME280;11841;49.368;20.962;2023-05-23T09:17:59;95351.88;;;20.78;56.50
23339;BME280;11841;49.368;20.962;2023-05-23T09:20:47;95348.00;;;20.84;58.95
23339;BME280;11841;49.368;20.962;2023-05-23T09:23:33;95351.66;;;20.93;59.04
23339;BME280;11841;49.368;20.962;2023-05-23T09:26:18;95355.34;;;21.02;61.18
23339;BME280;11841;49.368;20.962;2023-05-23T09:29:04;95356.81;;;21.13;59.67
23339;BME280;11841;49.368;20.962;2023-05-23T09:31:50;95359.28;;;21.28;56.92
23339;BME280;11841;49.368;20.962;2023-05-23T09:34:39;95355.91;;;21.36;56.82
23339;BME280;11841;49.368;20.962;2023-05-23T09:37:32;95364.16;;;21.45;56.23
23339;BME280;11841;49.368;20.962;2023-05-23T09:40:18;95359.94;;;21.39;56.46
23339;BME280;11841;49.368;20.962;2023-05-23T09:43:04;95354.53;;;21.39;57.12
23339;BME280;11841;49.368;20.962;2023-05-23T09:45:52;95353.03;;;21.51;58.55
23339;BME280;11841;49.368;20.962;2023-05-23T09:48:38;95358.25;;;21.62;58.18
23339;BME280;11841;49.368;20.962;2023-05-23T09:51:23;95364.44;;;21.62;59.77
23339;BME280;11841;49.368;20.962;2023-05-23T09:54:08;95352.63;;;21.58;60.31
23339;BME280;11841;49.368;20.962;2023-05-23T09:56:54;95349.81;;;21.49;59.29
23339;BME280;11841;49.368;20.962;2023-05-23T09:59:51;95348.72;;;21.32;59.98
23339;BME280;11841;49.368;20.962;2023-05-23T10:03:10;95354.09;;;21.13;59.82
23339;BME280;11841;49.368;20.962;2023-05-23T10:05:59;95359.88;;;21.07;60.93
23339;BME280;11841;49.368;20.962;2023-05-23T10:08:55;95359.06;;;21.06;61.25
23339;BME280;11841;49.368;20.962;2023-05-23T10:15:08;95362.03;;;21.05;61.31
23339;BME280;11841;49.368;20.962;2023-05-23T10:18:04;95350.97;;;21.06;61.58
23339;BME280;11841;49.368;20.962;2023-05-23T10:20:53;95356.34;;;21.06;62.80
23339;BME280;11841;49.368;20.962;2023-05-23T10:23:42;95349.38;;;21.05;61.74
23339;BME280;11841;49.368;20.962;2023-05-23T10:26:29;95349.75;;;20.99;61.20
23339;BME280;11841;49.368;20.962;2023-05-23T10:29:14;95351.88;;;20.97;61.84
23339;BME280;11841;49.368;20.962;2023-05-23T10:32:00;95357.06;;;20.93;62.36
23339;BME280;11841;49.368;20.962;2023-05-23T10:35:03;95361.41;;;20.89;61.26
23339;BME280;11841;49.368;20.962;2023-05-23T10:37:58;95363.31;;;20.89;62.28
23339;BME280;11841;49.368;20.962;2023-05-23T10:44:01;95384.13;;;20.83;65.30
23339;BME280;11841;49.368;20.962;2023-05-23T10:46:57;95380.75;;;20.73;70.77
23339;BME280;11841;49.368;20.962;2023-05-23T10:49:46;95366.19;;;20.50;73.32
23339;BME280;11841;49.368;20.962;2023-05-23T10:52:39;95364.53;;;20.30;74.27
23339;BME280;11841;49.368;20.962;2023-05-23T10:55:25;95369.44;;;20.23;77.56
23339;BME280;11841;49.368;20.962;2023-05-23T10:58:17;95371.69;;;20.11;77.94
23339;BME280;11841;49.368;20.962;2023-05-23T11:01:06;95371.44;;;20.08;78.01
23339;BME280;11841;49.368;20.962;2023-05-23T11:03:52;95365.53;;;20.06;77.23
23339;BME280;11841;49.368;20.962;2023-05-23T11:06:41;95374.19;;;20.03;78.31
23339;BME280;11841;49.368;20.962;2023-05-23T11:09:28;95355.41;;;19.98;80.39
23339;BME280;11841;49.368;20.962;2023-05-23T11:12:13;95355.97;;;19.95;84.47
23339;BME280;11841;49.368;20.962;2023-05-23T11:14:59;95359.09;;;19.78;86.84
23339;BME280;11841;49.368;20.962;2023-05-23T11:17:55;95358.66;;;19.66;88.81
23339;BME280;11841;49.368;20.962;2023-05-23T11:20:43;95352.41;;;19.71;87.57
23339;BME280;11841;49.368;20.962;2023-05-23T11:23:41;95342.47;;;19.71;87.43
23339;BME280;11841;49.368;20.962;2023-05-23T11:26:30;95345.44;;;19.70;90.84
23339;BME280;11841;49.368;20.962;2023-05-23T11:29:16;95337.34;;;19.75;88.58
23339;BME280;11841;49.368;20.962;2023-05-23T11:32:09;95336.38;;;19.89;87.39
23339;BME280;11841;49.368;20.962;2023-05-23T11:35:06;95339.16;;;20.08;82.96
23339;BME280;11841;49.368;20.962;2023-05-23T11:37:52;95337.44;;;20.22;82.33
23339;BME280;11841;49.368;20.962;2023-05-23T11:40:42;95337.78;;;20.39;80.02
23339;BME280;11841;49.368;20.962;2023-05-23T11:43:28;95337.66;;;20.49;76.82
23339;BME280;11841;49.368;20.962;2023-05-23T11:46:14;95344.53;;;20.60;77.59
23339;BME280;11841;49.368;20.962;2023-05-23T11:49:00;95343.63;;;20.70;76.00
23339;BME280;11841;49.368;20.962;2023-05-23T11:51:45;95333.06;;;20.73;75.63
23339;BME280;11841;49.368;20.962;2023-05-23T11:54:30;95328.84;;;20.86;73.76
23339;BME280;11841;49.368;20.962;2023-05-23T11:57:15;95326.78;;;21.01;73.14
23339;BME280;11841;49.368;20.962;2023-05-23T12:00:01;95333.66;;;21.12;72.31
23339;BME280;11841;49.368;20.962;2023-05-23T12:02:47;95331.25;;;21.11;71.33
23339;BME280;11841;49.368;20.962;2023-05-23T12:05:33;95327.75;;;21.10;68.89
23339;BME280;11841;49.368;20.962;2023-05-23T12:08:18;95315.84;;;21.11;69.39
23339;BME280;11841;49.368;20.962;2023-05-23T12:11:04;95321.59;;;21.23;69.73
23339;BME280;11841;49.368;20.962;2023-05-23T12:13:51;95300.69;;;21.34;70.06
23339;BME280;11841;49.368;20.962;2023-05-23T12:16:37;95304.59;;;21.41;69.01
23339;BME280;11841;49.368;20.962;2023-05-23T12:19:23;95302.41;;;21.43;69.05
23339;BME280;11841;49.368;20.962;2023-05-23T12:22:08;95308.25;;;21.50;68.31
23339;BME280;11841;49.368;20.962;2023-05-23T12:24:57;95310.84;;;21.55;67.22
23339;BME280;11841;49.368;20.962;2023-05-23T12:27:42;95310.25;;;21.58;67.63
23339;BME280;11841;49.368;20.962;2023-05-23T12:30:28;95305.88;;;21.63;68.18
23339;BME280;11841;49.368;20.962;2023-05-23T12:33:13;95306.31;;;21.70;65.84
23339;BME280;11841;49.368;20.962;2023-05-23T12:35:58;95297.91;;;21.71;65.69
23339;BME280;11841;49.368;20.962;2023-05-23T12:38:44;95305.88;;;21.81;63.16
23339;BME280;11841;49.368;20.962;2023-05-23T12:41:34;95303.88;;;21.87;62.37
23339;BME280;11841;49.368;20.962;2023-05-23T12:44:19;95299.22;;;21.92;61.26
23339;BME280;11841;49.368;20.962;2023-05-23T12:47:05;95295.63;;;21.97;59.62
23339;BME280;11841;49.368;20.962;2023-05-23T12:49:50;95298.31;;;21.97;62.25
23339;BME280;11841;49.368;20.962;2023-05-23T12:52:36;95286.22;;;22.08;63.67
23339;BME280;11841;49.368;20.962;2023-05-23T12:55:21;95287.03;;;22.22;61.91
23339;BME280;11841;49.368;20.962;2023-05-23T12:58:07;95285.25;;;22.17;59.94
23339;BME280;11841;49.368;20.962;2023-05-23T13:00:52;95285.25;;;22.17;59.69
23339;BME280;11841;49.368;20.962;2023-05-23T13:03:37;95283.94;;;22.15;60.54
23339;BME280;11841;49.368;20.962;2023-05-23T13:06:23;95280.72;;;22.13;59.02
23339;BME280;11841;49.368;20.962;2023-05-23T13:09:08;95276.53;;;22.20;60.28
23339;BME280;11841;49.368;20.962;2023-05-23T13:11:53;95279.03;;;22.30;60.21
23339;BME280;11841;49.368;20.962;2023-05-23T13:14:40;95275.94;;;22.37;60.13
23339;BME280;11841;49.368;20.962;2023-05-23T13:17:25;95275.44;;;22.35;58.83
23339;BME280;11841;49.368;20.962;2023-05-23T13:20:10;95276.03;;;22.32;60.86
23339;BME280;11841;49.368;20.962;2023-05-23T13:22:56;95273.03;;;22.33;60.38
23339;BME280;11841;49.368;20.962;2023-05-23T13:25:42;95270.03;;;22.35;61.28
23339;BME280;11841;49.368;20.962;2023-05-23T13:28:28;95274.44;;;22.31;60.69
23339;BME280;11841;49.368;20.962;2023-05-23T13:31:13;95274.84;;;22.38;63.01
23339;BME280;11841;49.368;20.962;2023-05-23T13:33:58;95262.41;;;22.50;62.04
23339;BME280;11841;49.368;20.962;2023-05-23T13:36:44;95263.22;;;22.51;62.95
23339;BME280;11841;49.368;20.962;2023-05-23T13:39:29;95254.41;;;22.45;61.85
23339;BME280;11841;49.368;20.962;2023-05-23T13:42:14;95246.72;;;22.39;62.43
23339;BME280;11841;49.368;20.962;2023-05-23T13:45:00;95254.31;;;22.37;61.24
23339;BME280;11841;49.368;20.962;2023-05-23T13:47:45;95250.25;;;22.39;60.03
23339;BME280;11841;49.368;20.962;2023-05-23T13:50:31;95250.53;;;22.38;60.01
23339;BME280;11841;49.368;20.962;2023-05-23T13:53:16;95255.63;;;22.39;60.10
23339;BME280;11841;49.368;20.962;2023-05-23T13:56:02;95255.63;;;22.39;61.39
23339;BME280;11841;49.368;20.962;2023-05-23T13:58:47;95259.22;;;22.48;61.73
23339;BME280;11841;49.368;20.962;2023-05-23T14:01:32;95268.53;;;22.42;62.30
23339;BME280;11841;49.368;20.962;2023-05-23T14:04:18;95263.44;;;22.27;63.43
23339;BME280;11841;49.368;20.962;2023-05-23T14:07:03;95270.72;;;22.27;64.21
23339;BME280;11841;49.368;20.962;2023-05-23T14:09:48;95268.63;;;22.24;63.90
23339;BME280;11841;49.368;20.962;2023-05-23T14:12:34;95271.84;;;22.12;65.09
23339;BME280;11841;49.368;20.962;2023-05-23T14:15:19;95267.91;;;22.05;65.15
23339;BME280;11841;49.368;20.962;2023-05-23T14:18:05;95273.81;;;21.93;65.43
23339;BME280;11841;49.368;20.962;2023-05-23T14:20:50;95286.28;;;21.89;67.83
23339;BME280;11841;49.368;20.962;2023-05-23T14:23:36;95294.97;;;21.86;69.02
23339;BME280;11841;49.368;20.962;2023-05-23T14:26:21;95296.50;;;21.92;70.94
23339;BME280;11841;49.368;20.962;2023-05-23T14:29:07;95295.91;;;21.95;73.16
23339;BME280;11841;49.368;20.962;2023-05-23T14:31:52;95302.91;;;21.96;73.55
23339;BME280;11841;49.368;20.962;2023-05-23T14:34:38;95310.22;;;21.96;73.80
23339;BME280;11841;49.368;20.962;2023-05-23T14:37:23;95315.19;;;21.89;75.26
23339;BME280;11841;49.368;20.962;2023-05-23T14:40:09;95317.97;;;21.84;75.64
23339;BME280;11841;49.368;20.962;2023-05-23T14:42:54;95316.50;;;21.73;76.85
23339;BME280;11841;49.368;20.962;2023-05-23T14:45:39;95325.78;;;21.67;76.84
23339;BME280;11841;49.368;20.962;2023-05-23T14:48:25;95331.28;;;21.62;76.46